createdAt,value
2023-03-31T00:05:00.168Z,213561.00
2023-03-31T00:11:04.985Z,213583.00
2023-03-31T00:17:07.302Z,213611.00
2023-03-31T00:23:11.290Z,213653.00
2023-03-31T00:29:14.450Z,213714.00
2023-03-31T00:35:16.785Z,213748.00
2023-03-31T00:41:19.250Z,213776.00
2023-03-31T00:47:23.403Z,213776.00
2023-03-31T00:53:30.575Z,213778.00
2023-03-31T00:59:39.099Z,213762.00
2023-03-31T01:05:48.126Z,213742.00
2023-03-31T01:11:50.643Z,213714.00
2023-03-31T01:17:56.337Z,213688.00
2023-03-31T01:24:27.556Z,213673.00
2023-03-31T01:30:36.532Z,213720.00
2023-03-31T01:36:38.734Z,213748.00
2023-03-31T01:42:49.928Z,213748.00
2023-03-31T01:48:55.436Z,213797.00
2023-03-31T01:55:24.694Z,213776.00
2023-03-31T02:01:38.562Z,213844.00
2023-03-31T02:07:50.508Z,213894.00
2023-03-31T02:13:56.678Z,213950.00
2023-03-31T02:20:06.088Z,213942.00
2023-03-31T02:26:19.737Z,213983.00
2023-03-31T02:32:27.946Z,213991.00
2023-03-31T02:38:36.529Z,213997.00
2023-03-31T02:44:40.783Z,213997.00
2023-03-31T02:51:09.280Z,213961.00
2023-03-31T02:57:22.987Z,213956.00
2023-03-31T03:03:34.362Z,213983.00
2023-03-31T03:09:59.908Z,213963.00
2023-03-31T03:16:14.180Z,213961.00
2023-03-31T03:22:16.380Z,213956.00
2023-03-31T03:28:18.776Z,213942.00
2023-03-31T03:34:21.170Z,213950.00
2023-03-31T03:40:23.613Z,213950.00
2023-03-31T03:46:26.016Z,213961.00
2023-03-31T03:52:28.573Z,213969.00
2023-03-31T03:58:30.932Z,213983.00
2023-03-31T04:04:33.309Z,214003.00
2023-03-31T04:10:36.752Z,214011.00
2023-03-31T04:16:41.058Z,214011.00
2023-03-31T04:22:47.501Z,214058.00
2023-03-31T04:28:50.985Z,214099.00
2023-03-31T04:35:03.044Z,214025.00
2023-03-31T04:41:05.390Z,214033.00
2023-03-31T04:47:07.557Z,214025.00
2023-03-31T04:53:10.005Z,214078.00
2023-03-31T04:59:12.374Z,214107.00
2023-03-31T05:05:14.749Z,214092.00
2023-03-31T05:11:17.305Z,214099.00
2023-03-31T05:17:19.774Z,214219.00
2023-03-31T05:23:22.575Z,214355.00
2023-03-31T05:29:25.049Z,214551.00
2023-03-31T05:35:27.336Z,214570.00
2023-03-31T05:41:29.640Z,214363.00
2023-03-31T05:47:32.741Z,214025.00
2023-03-31T05:53:35.234Z,213858.00
2023-03-31T05:59:38.648Z,213830.00
2023-03-31T06:05:42.126Z,213681.00
2023-03-31T06:11:44.403Z,213645.00
2023-03-31T06:17:46.725Z,213637.00
2023-03-31T06:23:49.317Z,213667.00
2023-03-31T06:29:51.561Z,213577.00
2023-03-31T06:35:57.532Z,213473.00
2023-03-31T06:42:00.054Z,213461.00
2023-03-31T06:48:03.936Z,213376.00
2023-03-31T06:54:06.679Z,213431.00
2023-03-31T07:00:10.025Z,213561.00
2023-03-31T07:06:12.231Z,213439.00
2023-03-31T07:12:14.578Z,213322.00
2023-03-31T07:18:18.185Z,213158.00
2023-03-31T07:24:20.916Z,213103.00
2023-03-31T07:30:23.439Z,213103.00
2023-03-31T07:36:25.819Z,213144.00
2023-03-31T07:42:31.688Z,213117.00
2023-03-31T07:48:34.083Z,213117.00
2023-03-31T07:54:36.402Z,213184.00
2023-03-31T08:00:38.695Z,213234.00
2023-03-31T08:06:41.193Z,213370.00
2023-03-31T08:12:43.927Z,213517.00
2023-03-31T08:18:46.743Z,213762.00
2023-03-31T08:24:48.935Z,214141.00
2023-03-31T08:30:51.304Z,214341.00
2023-03-31T08:36:53.855Z,214618.00
2023-03-31T08:43:27.032Z,215140.00
2023-03-31T08:49:36.830Z,216163.00
2023-03-31T08:55:49.841Z,216788.00
2023-03-31T09:02:10.068Z,217738.00
2023-03-31T09:08:24.964Z,217995.00
2023-03-31T09:14:27.497Z,218294.00
2023-03-31T09:20:37.602Z,219075.00
2023-03-31T09:26:47.136Z,220841.00
2023-03-31T09:32:53.888Z,221888.00
2023-03-31T09:38:56.723Z,221082.00
2023-03-31T09:44:59.221Z,220196.00
2023-03-31T09:51:08.607Z,219550.00
2023-03-31T09:57:27.764Z,219341.00
2023-03-31T10:03:37.316Z,219305.00
2023-03-31T10:09:40.148Z,219147.00
2023-03-31T10:15:42.928Z,218996.00
2023-03-31T10:21:46.877Z,218824.00
2023-03-31T10:27:53.383Z,218445.00
2023-03-31T10:33:56.910Z,218387.00
2023-03-31T10:40:13.262Z,218318.00
2023-03-31T10:46:15.876Z,218174.00
2023-03-31T10:52:25.081Z,218258.00
2023-03-31T10:58:36.550Z,218296.00
2023-03-31T11:04:42.185Z,218660.00
2023-03-31T11:11:11.683Z,218832.00
2023-03-31T11:17:45.330Z,218759.00
2023-03-31T11:24:07.005Z,218682.00
2023-03-31T11:30:44.978Z,218652.00
2023-03-31T11:37:05.618Z,220166.00
2023-03-31T11:43:14.605Z,221706.00
2023-03-31T11:49:28.496Z,221373.00
2023-03-31T11:55:32.834Z,222258.00
2023-03-31T12:01:58.338Z,223852.00
2023-03-31T12:08:08.889Z,224113.00
2023-03-31T12:14:48.235Z,224457.00
2023-03-31T12:21:01.186Z,224255.00
2023-03-31T12:27:09.729Z,224638.00
2023-03-31T12:33:22.151Z,224151.00
2023-03-31T12:39:42.921Z,223747.00
2023-03-31T12:46:07.185Z,221638.00
2023-03-31T12:52:18.089Z,221237.00
2023-03-31T12:58:25.202Z,220435.00
2023-03-31T13:04:27.790Z,220340.00
2023-03-31T13:10:32.231Z,221750.00
2023-03-31T13:16:36.548Z,221381.00
2023-03-31T13:22:52.533Z,222351.00
2023-03-31T13:29:36.922Z,221728.00
2023-03-31T13:35:43.068Z,223293.00
2023-03-31T13:42:06.874Z,221904.00
2023-03-31T13:48:24.192Z,221353.00
2023-03-31T13:54:40.914Z,220573.00
2023-03-31T14:01:06.262Z,220368.00
2023-03-31T14:07:18.347Z,221296.00
2023-03-31T14:13:25.744Z,220988.00
2023-03-31T14:20:10.957Z,220536.00
2023-03-31T14:26:50.344Z,220479.00
2023-03-31T14:33:25.770Z,220463.00
2023-03-31T14:39:32.605Z,220354.00
2023-03-31T14:45:35.298Z,220272.00
2023-03-31T14:51:38.441Z,220324.00
2023-03-31T14:57:41.831Z,220376.00
2023-03-31T15:03:45.400Z,220435.00
2023-03-31T15:09:50.947Z,220479.00
2023-03-31T15:15:53.641Z,220324.00
2023-03-31T15:22:02.444Z,220136.00
2023-03-31T15:28:08.496Z,219962.00
2023-03-31T15:34:30.078Z,219811.00
2023-03-31T15:40:44.247Z,219782.00
2023-03-31T15:46:58.322Z,219782.00
2023-03-31T15:53:01.764Z,219817.00
2023-03-31T15:59:22.479Z,219811.00
2023-03-31T16:05:54.375Z,219711.00
2023-03-31T16:12:00.745Z,219594.00
2023-03-31T16:18:17.379Z,219408.00
2023-03-31T16:24:31.704Z,219247.00
2023-03-31T16:30:37.706Z,219091.00
2023-03-31T16:36:40.345Z,218904.00
2023-03-31T16:42:42.496Z,218816.00
2023-03-31T16:48:44.811Z,218704.00
2023-03-31T16:54:47.195Z,218567.00
2023-03-31T17:00:49.835Z,218439.00
2023-03-31T17:06:52.945Z,218332.00
2023-03-31T17:12:55.312Z,218222.00
2023-03-31T17:18:57.819Z,218102.00
2023-03-31T17:25:00.450Z,218001.00
2023-03-31T17:31:02.837Z,217918.00
2023-03-31T17:37:05.194Z,217897.00
2023-03-31T17:43:07.650Z,217781.00
2023-03-31T17:49:09.937Z,217680.00
2023-03-31T17:55:13.096Z,217560.00
2023-03-31T18:01:15.741Z,217419.00
2023-03-31T18:07:23.720Z,217221.00
2023-03-31T18:13:26.099Z,217113.00
2023-03-31T18:19:28.783Z,217000.00
2023-03-31T18:25:31.534Z,216942.00
2023-03-31T18:31:34.196Z,216824.00
2023-03-31T18:37:36.707Z,216669.00
2023-03-31T18:43:39.416Z,216529.00
2023-03-31T18:49:41.822Z,216392.00
2023-03-31T18:55:44.840Z,216191.00
2023-03-31T19:01:47.726Z,216015.00
2023-03-31T19:07:50.214Z,215894.00
2023-03-31T19:13:54.756Z,215866.00
2023-03-31T19:19:57.223Z,215833.00
2023-03-31T19:26:00.136Z,215847.00
2023-03-31T19:32:03.696Z,215819.00
2023-03-31T19:38:06.090Z,215764.00
2023-03-31T19:44:08.989Z,215700.00
2023-03-31T19:50:11.875Z,215700.00
2023-03-31T19:56:17.770Z,215720.00
2023-03-31T20:02:20.351Z,215642.00
2023-03-31T20:08:23.112Z,215576.00
2023-03-31T20:14:25.882Z,215510.00
2023-03-31T20:20:28.082Z,215427.00
2023-03-31T20:26:32.962Z,215385.00
2023-03-31T20:32:36.073Z,215289.00
2023-03-31T20:38:38.943Z,215217.00
2023-03-31T20:44:41.497Z,215154.00
2023-03-31T20:50:44.791Z,215058.00
2023-03-31T20:56:47.576Z,214988.00
2023-03-31T21:02:50.063Z,214974.00
2023-03-31T21:08:54.300Z,214905.00
2023-03-31T21:14:56.892Z,214849.00
2023-03-31T21:21:02.001Z,214745.00
2023-03-31T21:27:04.463Z,214669.00
2023-03-31T21:33:06.931Z,214634.00
2023-03-31T21:39:10.140Z,214604.00
2023-03-31T21:45:12.923Z,214578.00
2023-03-31T21:51:15.129Z,214634.00
2023-03-31T21:57:17.571Z,214578.00
2023-03-31T22:03:27.126Z,214551.00
2023-03-31T22:09:30.468Z,214488.00
2023-03-31T22:15:32.984Z,214390.00
2023-03-31T22:21:35.575Z,214418.00
2023-03-31T22:27:38.361Z,214460.00
2023-03-31T22:33:40.727Z,214404.00
2023-03-31T22:39:43.172Z,214321.00
2023-03-31T22:45:45.720Z,214321.00
2023-03-31T22:51:48.221Z,214321.00
2023-03-31T22:57:53.296Z,214288.00
2023-03-31T23:03:56.180Z,214274.00
2023-03-31T23:09:58.470Z,214329.00
2023-03-31T23:16:07.257Z,214454.00
2023-03-31T23:22:09.963Z,214496.00
2023-03-31T23:28:12.287Z,214466.00
2023-03-31T23:34:14.962Z,214446.00
2023-03-31T23:40:18.930Z,214446.00
2023-03-31T23:46:22.045Z,214432.00
2023-03-31T23:52:25.122Z,214404.00
2023-03-31T23:58:27.354Z,214418.00
